createdAt,value
2023-02-23T00:02:04.551Z,1.63
2023-02-23T00:04:31.483Z,1.65
2023-02-23T00:06:58.562Z,2.38
2023-02-23T00:09:25.403Z,2.20
2023-02-23T00:11:56.150Z,2.83
2023-02-23T00:14:27.527Z,2.55
2023-02-23T00:16:55.471Z,2.03
2023-02-23T00:19:24.855Z,2.17
2023-02-23T00:21:52.618Z,1.88
2023-02-23T00:24:19.951Z,1.90
2023-02-23T00:26:48.109Z,2.30
2023-02-23T00:29:17.985Z,1.52
2023-02-23T00:31:46.386Z,2.15
2023-02-23T00:34:15.395Z,1.52
2023-02-23T00:36:43.030Z,1.77
2023-02-23T00:39:38.058Z,1.50
2023-02-23T00:42:06.695Z,2.65
2023-02-23T00:44:34.894Z,1.77
2023-02-23T00:47:02.160Z,1.25
2023-02-23T00:49:53.896Z,2.00
2023-02-23T00:52:20.637Z,1.95
2023-02-23T00:55:08.396Z,1.90
2023-02-23T00:57:35.440Z,2.40
2023-02-23T01:00:17.398Z,1.58
2023-02-23T01:02:44.559Z,2.38
2023-02-23T01:05:11.936Z,1.98
2023-02-23T01:07:40.092Z,1.90
2023-02-23T01:10:19.638Z,1.38
2023-02-23T01:12:48.860Z,1.60
2023-02-23T01:15:16.085Z,1.63
2023-02-23T01:17:43.222Z,1.50
2023-02-23T01:20:19.580Z,1.23
2023-02-23T01:22:48.455Z,2.35
2023-02-23T01:25:19.074Z,1.83
2023-02-23T01:27:46.273Z,1.15
2023-02-23T01:30:15.880Z,1.13
2023-02-23T01:32:42.705Z,1.23
2023-02-23T01:35:10.985Z,2.58
2023-02-23T01:37:41.825Z,1.48
2023-02-23T01:40:39.187Z,1.52
2023-02-23T01:43:26.102Z,2.47
2023-02-23T01:45:55.722Z,2.55
2023-02-23T01:48:32.624Z,1.73
2023-02-23T01:51:15.275Z,1.35
2023-02-23T01:56:21.553Z,2.00
2023-02-23T01:58:54.787Z,1.90
2023-02-23T02:01:23.380Z,1.52
2023-02-23T02:03:56.807Z,2.03
2023-02-23T02:06:28.905Z,1.60
2023-02-23T02:09:01.208Z,1.38
2023-02-23T02:11:37.150Z,1.85
2023-02-23T02:14:13.204Z,0.98
2023-02-23T02:16:54.716Z,1.10
2023-02-23T02:19:47.167Z,1.95
2023-02-23T02:22:14.462Z,1.42
2023-02-23T02:25:13.589Z,1.98
2023-02-23T02:27:59.591Z,1.60
2023-02-23T02:30:52.912Z,1.35
2023-02-23T02:33:48.368Z,1.90
2023-02-23T02:36:43.056Z,1.55
2023-02-23T02:39:35.186Z,1.40
2023-02-23T02:42:20.601Z,1.63
2023-02-23T02:45:13.955Z,1.65
2023-02-23T02:47:49.006Z,1.38
2023-02-23T02:50:31.555Z,1.95
2023-02-23T02:53:07.291Z,1.63
2023-02-23T02:55:37.772Z,1.52
2023-02-23T02:58:08.056Z,2.42
2023-02-23T03:01:08.993Z,2.17
2023-02-23T03:03:57.290Z,1.30
2023-02-23T03:06:49.907Z,1.63
2023-02-23T03:09:53.947Z,1.50
2023-02-23T03:12:54.052Z,2.17
2023-02-23T03:15:59.532Z,1.50
2023-02-23T03:18:56.872Z,2.63
2023-02-23T03:21:48.845Z,1.70
2023-02-23T03:24:48.514Z,1.63
2023-02-23T03:27:54.490Z,1.42
2023-02-23T03:30:55.757Z,1.35
2023-02-23T03:33:53.328Z,1.52
2023-02-23T03:36:46.535Z,3.15
2023-02-23T03:39:38.771Z,2.30
2023-02-23T03:42:30.420Z,2.03
2023-02-23T03:45:18.042Z,2.10
2023-02-23T03:48:04.497Z,1.60
2023-02-23T03:51:01.686Z,3.25
2023-02-23T03:53:56.626Z,1.50
2023-02-23T03:56:45.789Z,2.70
2023-02-23T03:59:34.165Z,1.45
2023-02-23T04:02:21.120Z,1.48
2023-02-23T04:05:07.818Z,1.77
2023-02-23T04:07:53.363Z,3.13
2023-02-23T04:10:41.031Z,1.73
2023-02-23T04:13:17.314Z,2.33
2023-02-23T04:16:08.976Z,1.52
2023-02-23T04:18:38.876Z,1.88
2023-02-23T04:21:08.591Z,2.25
2023-02-23T04:23:38.025Z,1.90
2023-02-23T04:26:05.265Z,1.65
2023-02-23T04:28:31.964Z,1.58
2023-02-23T04:30:58.677Z,1.48
2023-02-23T04:33:25.680Z,2.47
2023-02-23T04:35:54.167Z,2.28
2023-02-23T04:38:21.973Z,1.95
2023-02-23T04:40:49.019Z,1.98
2023-02-23T04:43:18.768Z,2.10
2023-02-23T04:45:45.710Z,1.95
2023-02-23T04:48:12.477Z,1.55
2023-02-23T04:50:39.761Z,1.45
2023-02-23T04:53:06.626Z,2.92
2023-02-23T04:55:33.614Z,1.52
2023-02-23T04:58:01.896Z,1.95
2023-02-23T05:00:29.712Z,1.63
2023-02-23T05:02:57.629Z,1.60
2023-02-23T05:05:24.671Z,1.90
2023-02-23T05:07:51.673Z,1.95
2023-02-23T05:10:18.408Z,1.50
2023-02-23T05:12:45.146Z,2.67
2023-02-23T05:15:12.020Z,2.67
2023-02-23T05:17:42.090Z,1.17
2023-02-23T05:20:13.205Z,2.28
2023-02-23T05:22:40.084Z,1.48
2023-02-23T05:25:08.836Z,3.65
2023-02-23T05:27:36.890Z,1.70
2023-02-23T05:30:04.893Z,1.88
2023-02-23T05:32:31.701Z,3.60
2023-02-23T05:34:58.540Z,1.23
2023-02-23T05:37:25.279Z,1.60
2023-02-23T05:39:51.992Z,1.73
2023-02-23T05:42:19.006Z,1.67
2023-02-23T05:44:45.778Z,2.33
2023-02-23T05:47:12.554Z,1.30
2023-02-23T05:49:39.284Z,1.63
2023-02-23T05:52:06.141Z,1.63
2023-02-23T05:54:32.838Z,2.42
2023-02-23T05:57:01.712Z,1.73
2023-02-23T05:59:28.738Z,1.50
2023-02-23T06:01:55.537Z,1.33
2023-02-23T06:04:23.416Z,1.25
2023-02-23T06:06:50.489Z,1.48
2023-02-23T06:09:17.300Z,1.67
2023-02-23T06:11:45.211Z,1.70
2023-02-23T06:14:12.161Z,1.58
2023-02-23T06:16:39.453Z,2.13
2023-02-23T06:19:06.426Z,2.35
2023-02-23T06:21:33.522Z,2.08
2023-02-23T06:24:01.087Z,2.20
2023-02-23T06:26:29.151Z,1.55
2023-02-23T06:28:56.361Z,1.88
2023-02-23T06:31:23.339Z,1.70
2023-02-23T06:33:51.016Z,1.63
2023-02-23T06:36:18.038Z,1.90
2023-02-23T06:38:45.180Z,2.35
2023-02-23T06:41:12.442Z,1.65
2023-02-23T06:43:39.117Z,2.10
2023-02-23T06:46:06.366Z,1.73
2023-02-23T06:48:33.213Z,2.05
2023-02-23T06:51:00.207Z,2.45
2023-02-23T06:53:27.292Z,2.65
2023-02-23T06:55:53.973Z,2.22
2023-02-23T06:58:20.731Z,1.55
2023-02-23T07:00:47.470Z,1.75
2023-02-23T07:03:14.380Z,2.33
2023-02-23T07:05:41.120Z,2.08
2023-02-23T07:08:08.065Z,2.13
2023-02-23T07:10:35.228Z,2.72
2023-02-23T07:13:02.098Z,2.53
2023-02-23T07:15:29.135Z,2.42
2023-02-23T07:17:56.910Z,2.70
2023-02-23T07:20:23.677Z,2.15
2023-02-23T07:22:51.024Z,2.85
2023-02-23T07:25:18.286Z,2.08
2023-02-23T07:27:45.429Z,1.90
2023-02-23T07:30:12.846Z,1.65
2023-02-23T07:32:39.991Z,2.60
2023-02-23T07:35:07.924Z,3.15
2023-02-23T07:37:34.921Z,1.80
2023-02-23T07:40:01.823Z,2.33
2023-02-23T07:42:28.861Z,2.30
2023-02-23T07:44:56.284Z,2.08
2023-02-23T07:47:30.317Z,1.67
2023-02-23T07:50:02.496Z,2.10
2023-02-23T07:52:29.773Z,2.58
2023-02-23T07:54:56.587Z,3.03
2023-02-23T07:57:24.988Z,1.73
2023-02-23T07:59:52.031Z,2.22
2023-02-23T08:02:19.007Z,2.35
2023-02-23T08:04:45.861Z,2.65
2023-02-23T08:07:12.577Z,3.20
2023-02-23T08:09:39.495Z,1.95
2023-02-23T08:12:06.614Z,2.60
2023-02-23T08:14:33.412Z,2.88
2023-02-23T08:17:01.745Z,2.50
2023-02-23T08:19:28.733Z,5.78
2023-02-23T08:21:56.562Z,8.85
2023-02-23T08:24:23.523Z,7.15
2023-02-23T08:26:50.488Z,3.35
2023-02-23T08:29:17.605Z,2.67
2023-02-23T08:31:44.718Z,2.17
2023-02-23T08:34:11.669Z,2.55
2023-02-23T08:36:39.300Z,2.20
2023-02-23T08:39:07.564Z,2.72
2023-02-23T08:41:34.923Z,2.50
2023-02-23T08:44:01.645Z,2.10
2023-02-23T08:46:28.391Z,3.53
2023-02-23T08:48:56.669Z,2.20
2023-02-23T08:51:23.717Z,2.85
2023-02-23T08:53:50.531Z,3.55
2023-02-23T08:56:17.341Z,2.83
2023-02-23T08:58:44.131Z,2.67
2023-02-23T09:01:19.346Z,3.38
2023-02-23T09:03:46.322Z,2.17
2023-02-23T09:06:18.141Z,2.72
2023-02-23T09:08:45.424Z,1.83
2023-02-23T09:11:12.138Z,2.83
2023-02-23T09:13:38.902Z,2.78
2023-02-23T09:16:07.824Z,2.30
2023-02-23T09:18:35.586Z,2.72
2023-02-23T09:21:08.585Z,2.53
2023-02-23T09:23:36.064Z,2.47
2023-02-23T09:26:06.652Z,2.95
2023-02-23T09:28:34.946Z,3.58
2023-02-23T09:31:10.023Z,4.22
2023-02-23T09:33:37.165Z,3.85
2023-02-23T09:36:18.212Z,2.13
2023-02-23T09:38:47.027Z,3.22
2023-02-23T09:41:57.589Z,3.35
2023-02-23T09:45:05.749Z,2.53
2023-02-23T09:48:04.330Z,2.78
2023-02-23T09:50:34.997Z,3.65
2023-02-23T09:53:04.975Z,2.17
2023-02-23T09:55:32.541Z,4.10
2023-02-23T09:58:08.543Z,2.42
2023-02-23T10:00:43.659Z,3.42
2023-02-23T10:03:19.645Z,2.60
2023-02-23T10:05:53.568Z,2.45
2023-02-23T10:08:23.189Z,1.60
2023-02-23T10:11:05.179Z,2.28
2023-02-23T10:13:46.587Z,1.75
2023-02-23T10:16:54.638Z,3.03
2023-02-23T10:19:43.056Z,2.08
2023-02-23T10:22:12.712Z,2.58
2023-02-23T10:24:43.385Z,2.50
2023-02-23T10:27:15.956Z,4.10
2023-02-23T10:29:47.843Z,2.53
2023-02-23T10:32:22.512Z,2.28
2023-02-23T10:34:53.922Z,1.70
2023-02-23T10:37:21.082Z,3.75
2023-02-23T10:39:49.978Z,2.55
2023-02-23T10:42:23.199Z,2.20
2023-02-23T10:44:50.618Z,2.22
2023-02-23T10:47:25.216Z,4.00
2023-02-23T10:49:56.814Z,2.58
2023-02-23T10:52:52.070Z,3.08
2023-02-23T10:55:25.407Z,2.42
2023-02-23T10:58:04.126Z,1.83
2023-02-23T11:00:34.195Z,2.25
2023-02-23T11:03:03.444Z,2.30
2023-02-23T11:05:58.429Z,2.10
2023-02-23T11:08:34.780Z,2.25
2023-02-23T11:11:19.429Z,2.08
2023-02-23T11:13:49.775Z,1.95
2023-02-23T11:16:20.277Z,2.33
2023-02-23T11:19:00.839Z,1.95
2023-02-23T11:21:38.454Z,2.25
2023-02-23T11:24:26.540Z,2.85
2023-02-23T11:26:58.039Z,2.00
2023-02-23T11:29:35.412Z,2.30
2023-02-23T11:32:26.716Z,2.55
2023-02-23T11:35:11.851Z,2.25
2023-02-23T11:37:38.670Z,2.80
2023-02-23T11:40:39.960Z,2.60
2023-02-23T11:43:07.451Z,4.50
2023-02-23T11:45:47.352Z,2.20
2023-02-23T11:48:23.889Z,1.77
2023-02-23T11:50:50.736Z,2.30
2023-02-23T11:53:30.147Z,3.10
2023-02-23T11:56:02.778Z,2.20
2023-02-23T11:58:49.853Z,2.50
2023-02-23T12:01:24.358Z,3.17
2023-02-23T12:03:56.657Z,1.85
2023-02-23T12:06:36.853Z,2.72
2023-02-23T12:09:29.571Z,3.10
2023-02-23T12:12:15.552Z,1.58
2023-02-23T12:15:00.216Z,2.63
2023-02-23T12:17:32.942Z,3.30
2023-02-23T12:20:25.611Z,2.00
2023-02-23T12:25:40.809Z,2.95
2023-02-23T12:28:38.956Z,2.28
2023-02-23T12:31:25.969Z,1.42
2023-02-23T12:34:10.763Z,1.40
2023-02-23T12:36:43.701Z,1.90
2023-02-23T12:39:22.493Z,1.48
2023-02-23T12:42:00.810Z,1.52
2023-02-23T12:44:52.945Z,1.67
2023-02-23T12:47:27.291Z,1.27
2023-02-23T12:50:07.437Z,2.45
2023-02-23T12:52:38.797Z,1.67
2023-02-23T12:55:11.916Z,2.33
2023-02-23T12:57:52.205Z,1.65
2023-02-23T13:00:46.008Z,2.35
2023-02-23T13:03:41.688Z,4.88
2023-02-23T13:06:22.914Z,1.42
2023-02-23T13:08:59.360Z,2.17
2023-02-23T13:11:51.209Z,1.60
2023-02-23T13:14:35.638Z,1.23
2023-02-23T13:17:37.992Z,1.42
2023-02-23T13:20:22.667Z,1.75
2023-02-23T13:22:51.616Z,1.95
2023-02-23T13:25:50.774Z,1.65
2023-02-23T13:28:39.663Z,1.67
2023-02-23T13:31:20.575Z,2.28
2023-02-23T13:33:49.617Z,2.35
2023-02-23T13:36:19.683Z,2.00
2023-02-23T13:39:17.973Z,1.88
2023-02-23T13:42:00.103Z,2.55
2023-02-23T13:44:49.358Z,2.33
2023-02-23T13:47:32.824Z,1.45
2023-02-23T13:50:22.739Z,2.15
2023-02-23T13:52:49.994Z,1.20
2023-02-23T13:55:32.691Z,1.15
2023-02-23T13:58:23.263Z,1.48
2023-02-23T14:01:04.449Z,4.22
2023-02-23T14:03:37.322Z,1.45
2023-02-23T14:06:04.570Z,3.30
2023-02-23T14:08:39.105Z,2.75
2023-02-23T14:11:06.820Z,1.60
2023-02-23T14:13:41.402Z,2.00
2023-02-23T14:16:15.657Z,1.40
2023-02-23T14:19:08.204Z,1.50
2023-02-23T14:24:19.535Z,3.85
2023-02-23T14:29:40.249Z,3.95
2023-02-23T14:32:13.282Z,1.77
2023-02-23T14:35:01.096Z,2.38
2023-02-23T14:37:34.735Z,2.13
2023-02-23T14:40:09.113Z,1.67
2023-02-23T14:42:39.155Z,2.10
2023-02-23T14:45:29.189Z,1.20
2023-02-23T14:48:01.585Z,1.88
2023-02-23T14:50:34.297Z,1.73
2023-02-23T14:53:04.267Z,1.40
2023-02-23T14:55:35.538Z,1.67
2023-02-23T14:58:21.496Z,1.83
2023-02-23T15:00:49.164Z,1.60
2023-02-23T15:03:15.915Z,1.23
2023-02-23T15:05:44.558Z,1.63
2023-02-23T15:08:18.499Z,1.40
2023-02-23T15:10:48.049Z,1.73
2023-02-23T15:13:29.238Z,2.13
2023-02-23T15:15:58.570Z,1.23
2023-02-23T15:18:34.734Z,1.45
2023-02-23T15:21:08.308Z,1.40
2023-02-23T15:23:37.870Z,3.38
2023-02-23T15:26:32.069Z,1.75
2023-02-23T15:29:11.370Z,1.50
2023-02-23T15:31:41.280Z,3.00
2023-02-23T15:34:12.136Z,1.70
2023-02-23T15:36:41.310Z,1.33
2023-02-23T15:39:16.653Z,0.90
2023-02-23T15:41:48.476Z,1.10
2023-02-23T15:44:22.891Z,1.90
2023-02-23T15:46:56.098Z,1.75
2023-02-23T15:49:28.975Z,1.50
2023-02-23T15:52:19.502Z,1.45
2023-02-23T15:55:00.177Z,1.73
2023-02-23T15:57:34.057Z,2.10
2023-02-23T16:00:10.132Z,2.45
2023-02-23T16:02:37.824Z,1.33
2023-02-23T16:05:25.723Z,1.20
2023-02-23T16:08:05.462Z,2.13
2023-02-23T16:10:47.144Z,3.60
2023-02-23T16:13:19.825Z,4.25
2023-02-23T16:15:50.139Z,2.53
2023-02-23T16:18:21.119Z,1.48
2023-02-23T16:20:56.234Z,1.65
2023-02-23T16:23:37.261Z,1.70
2023-02-23T16:26:12.178Z,3.35
2023-02-23T16:28:45.034Z,1.60
2023-02-23T16:31:14.206Z,1.83
2023-02-23T16:33:45.004Z,1.80
2023-02-23T16:36:12.380Z,1.85
2023-02-23T16:39:04.263Z,1.75
2023-02-23T16:41:33.105Z,1.90
2023-02-23T16:44:05.276Z,2.22
2023-02-23T16:46:53.534Z,1.80
2023-02-23T16:49:23.647Z,1.30
2023-02-23T16:51:51.330Z,1.73
2023-02-23T16:54:18.211Z,1.80
2023-02-23T16:56:47.412Z,2.78
2023-02-23T16:59:17.707Z,1.30
2023-02-23T17:01:49.966Z,1.80
2023-02-23T17:06:47.329Z,2.10
2023-02-23T17:09:14.462Z,2.10
2023-02-23T17:11:44.014Z,1.90
2023-02-23T17:14:24.645Z,3.10
2023-02-23T17:16:52.060Z,1.73
2023-02-23T17:19:18.937Z,1.75
2023-02-23T17:21:46.979Z,2.17
2023-02-23T17:24:15.843Z,2.35
2023-02-23T17:26:44.003Z,2.50
2023-02-23T17:29:10.759Z,2.83
2023-02-23T17:31:38.417Z,3.45
2023-02-23T17:34:06.262Z,4.32
2023-02-23T17:36:32.976Z,4.80
2023-02-23T17:38:59.916Z,3.67
2023-02-23T17:41:27.913Z,3.47
2023-02-23T17:43:54.997Z,2.70
2023-02-23T17:46:24.407Z,3.05
2023-02-23T17:48:52.386Z,2.40
2023-02-23T17:51:21.531Z,4.28
2023-02-23T17:53:48.484Z,3.25
2023-02-23T17:56:16.413Z,3.17
2023-02-23T17:58:43.094Z,3.15
2023-02-23T18:01:10.016Z,4.03
2023-02-23T18:03:37.355Z,3.67
2023-02-23T18:06:07.848Z,3.60
2023-02-23T18:08:39.256Z,2.08
2023-02-23T18:11:06.580Z,2.63
2023-02-23T18:13:34.596Z,2.28
2023-02-23T18:16:09.619Z,3.22
2023-02-23T18:18:42.366Z,3.60
2023-02-23T18:21:19.108Z,3.65
2023-02-23T18:23:46.523Z,2.72
2023-02-23T18:26:17.357Z,2.53
2023-02-23T18:28:45.921Z,3.03
2023-02-23T18:31:15.833Z,1.80
2023-02-23T18:33:44.853Z,3.22
2023-02-23T18:36:35.502Z,2.90
2023-02-23T18:39:06.080Z,2.30
2023-02-23T18:41:33.593Z,2.33
2023-02-23T18:44:06.457Z,2.08
2023-02-23T18:46:33.846Z,4.07
2023-02-23T18:49:01.009Z,2.72
2023-02-23T18:51:29.898Z,3.40
2023-02-23T18:53:57.190Z,2.97
2023-02-23T18:56:27.281Z,3.47
2023-02-23T18:58:57.410Z,3.58
2023-02-23T19:01:28.221Z,3.83
2023-02-23T19:03:57.303Z,4.80
2023-02-23T19:06:25.314Z,3.45
2023-02-23T19:08:55.497Z,1.95
2023-02-23T19:11:29.880Z,3.95
2023-02-23T19:14:02.237Z,3.33
2023-02-23T19:16:31.480Z,5.22
2023-02-23T19:18:59.674Z,4.63
2023-02-23T19:21:27.885Z,2.70
2023-02-23T19:24:00.002Z,2.58
2023-02-23T19:26:29.576Z,3.50
2023-02-23T19:28:58.253Z,2.35
2023-02-23T19:31:26.308Z,3.90
2023-02-23T19:33:56.450Z,3.65
2023-02-23T19:36:29.866Z,2.30
2023-02-23T19:39:06.337Z,2.08
2023-02-23T19:41:34.138Z,2.45
2023-02-23T19:44:05.576Z,2.88
2023-02-23T19:46:32.547Z,4.03
2023-02-23T19:49:00.281Z,2.83
2023-02-23T19:51:28.160Z,3.60
2023-02-23T19:54:02.206Z,2.97
2023-02-23T19:56:29.389Z,3.47
2023-02-23T19:58:57.503Z,2.85
2023-02-23T20:01:27.851Z,3.25
2023-02-23T20:03:55.822Z,2.95
2023-02-23T20:06:25.593Z,3.17
2023-02-23T20:08:52.745Z,3.58
2023-02-23T20:11:20.342Z,3.28
2023-02-23T20:13:47.384Z,3.50
2023-02-23T20:16:17.480Z,4.32
2023-02-23T20:18:44.926Z,3.25
2023-02-23T20:21:18.235Z,3.53
2023-02-23T20:23:47.571Z,3.15
2023-02-23T20:26:18.102Z,2.80
2023-02-23T20:28:44.987Z,3.50
2023-02-23T20:31:26.231Z,2.60
2023-02-23T20:33:56.159Z,3.20
2023-02-23T20:36:24.771Z,3.45
2023-02-23T20:38:52.507Z,4.50
2023-02-23T20:41:20.229Z,3.75
2023-02-23T20:43:47.406Z,3.90
2023-02-23T20:46:16.433Z,4.38
2023-02-23T20:48:43.932Z,3.72
2023-02-23T20:51:18.016Z,4.43
2023-02-23T20:53:46.952Z,3.38
2023-02-23T20:56:16.870Z,3.45
2023-02-23T20:58:44.563Z,3.47
2023-02-23T21:01:16.210Z,3.28
2023-02-23T21:03:46.421Z,5.75
2023-02-23T21:06:16.384Z,6.13
2023-02-23T21:08:46.904Z,4.70
2023-02-23T21:11:13.648Z,4.70
2023-02-23T21:13:40.892Z,5.30
2023-02-23T21:16:08.205Z,4.35
2023-02-23T21:18:36.312Z,3.78
2023-02-23T21:21:10.147Z,3.97
2023-02-23T21:23:39.914Z,5.22
2023-02-23T21:26:16.467Z,3.78
2023-02-23T21:28:45.613Z,4.00
2023-02-23T21:31:14.098Z,3.67
2023-02-23T21:33:44.891Z,4.40
2023-02-23T21:36:12.736Z,4.75
2023-02-23T21:38:44.796Z,4.88
2023-02-23T21:41:15.604Z,3.83
2023-02-23T21:43:44.830Z,4.93
2023-02-23T21:46:15.924Z,4.38
2023-02-23T21:48:53.666Z,5.63
2023-02-23T21:51:20.847Z,4.88
2023-02-23T21:58:48.568Z,4.47
2023-02-23T22:01:38.396Z,5.30
2023-02-23T22:04:25.415Z,4.63
2023-02-23T22:07:12.355Z,4.78
2023-02-23T22:09:59.365Z,4.18
2023-02-23T22:12:46.643Z,3.85
2023-02-23T22:15:34.072Z,3.78
2023-02-23T22:18:21.025Z,3.80
2023-02-23T22:21:10.018Z,4.28
2023-02-23T22:23:57.177Z,3.70
2023-02-23T22:26:50.573Z,3.97
2023-02-23T22:29:38.870Z,3.70
2023-02-23T22:32:27.311Z,3.50
2023-02-23T22:35:14.321Z,4.80
2023-02-23T22:38:01.282Z,5.80
2023-02-23T22:40:48.301Z,3.67
2023-02-23T22:43:35.253Z,4.10
2023-02-23T22:46:24.118Z,5.18
2023-02-23T22:49:11.921Z,4.25
2023-02-23T22:52:03.516Z,4.55
2023-02-23T22:54:51.310Z,3.58
2023-02-23T22:57:39.897Z,3.15
2023-02-23T23:00:27.874Z,4.80
2023-02-23T23:03:14.808Z,3.58
2023-02-23T23:06:08.126Z,3.50
2023-02-23T23:08:56.527Z,2.90
2023-02-23T23:11:44.269Z,3.10
2023-02-23T23:14:32.672Z,3.08
2023-02-23T23:17:20.270Z,3.83
2023-02-23T23:20:11.879Z,4.50
2023-02-23T23:22:58.807Z,3.53
2023-02-23T23:25:47.458Z,3.38
2023-02-23T23:28:43.468Z,4.30
2023-02-23T23:31:32.652Z,3.70
2023-02-23T23:34:22.482Z,4.80
2023-02-23T23:37:09.800Z,5.35
2023-02-23T23:40:00.180Z,3.78
2023-02-23T23:42:48.101Z,4.65
2023-02-23T23:45:38.247Z,4.68
2023-02-23T23:48:25.436Z,5.28
2023-02-23T23:51:12.470Z,3.80
2023-02-23T23:54:01.308Z,5.50
2023-02-23T23:56:49.717Z,4.28
2023-02-23T23:59:41.577Z,3.63
